Vernon, Colorado
Current Conditions -  °F | °C
As of 1:15 AM on Thursday 18 Dec 2014 (Local Time) from KSYF Reporting Station
Overcast Overcast  
Wind Chill: 24°   Ceiling: 1800
Heat Index: 24°   Visibility: 10mi
Dew Point: 23°   Wind: 0mph
Humidity: 94%   Direction: NA
Pressure: 30.05"   Gusts: NA
Location:  39.95°N, 102.32°W
Report Text: KSYF 180815Z AUTO 00000KT 10SM BKN018 OVC085 M04/M05 A3005 RMK AO2 T10421051
Loading
Personal Weather Stations






























Interactive Weather Map New forecast layout! Learn more

10-Day Weather Forecast

Advertisements
Track Severe Weather on mobile